Terminal Aerodrome Forecast
Issued by NWS

Home | Current Version | Previous Version | Text Only | Print | Product List | Glossary On
Versions: 1 2 3 4 5 6 7 8 9 10 11 12
000
FTUS45 KRIW 180500
TAFRKS
TAF
KRKS 180525Z 1806/1906 20005KT P6SM FEW110
     FM181900 21011KT P6SM SCT100
     FM190200 20008KT P6SM SCT100 BKN140=

USA.gov is the U.S. government's official web portal to all federal, state and local government web resources and services.